Time;durP1;ratioP1;P1;durP2;ratioP2;P2;SDS_P1;SDS_P2;PMS_P1;PMS_P2;Temp;Humidity;BMP_temperature;BMP_pressure;BME280_temperature;BME280_humidity;BME280_pressure;Samples;Min_cycle;Max_cycle;Signal;HPM_P1;HPM_P2
2023/03/27 00:01:21;;;;;;;2.05;0.30;;;3.60;95.10;;;;;;4980271;28;20046;-80
2023/03/27 00:03:49;;;;;;;0.73;0.20;;;3.60;95.20;;;;;;4981689;28;20069;-80
2023/03/27 00:06:23;;;;;;;2.20;0.20;;;3.60;95.20;;;;;;5010676;28;20124;-80
2023/03/27 00:08:51;;;;;;;0.43;0.20;;;3.50;95.20;;;;;;4995542;28;20147;-80
2023/03/27 00:11:20;;;;;;;2.45;0.20;;;3.50;95.20;;;;;;5006615;28;20096;-80
2023/03/27 00:13:48;;;;;;;2.40;0.50;;;3.50;95.20;;;;;;4998335;28;20441;-80
2023/03/27 00:16:23;;;;;;;0.80;0.17;;;3.50;95.20;;;;;;4998175;28;20050;-80
2023/03/27 00:18:53;;;;;;;1.60;0.15;;;3.50;95.20;;;;;;5005486;28;20041;-79
2023/03/27 00:21:21;;;;;;;1.83;0.10;;;3.50;95.20;;;;;;4998454;28;20046;-80
2023/03/27 00:23:48;;;;;;;1.58;0.20;;;3.50;95.30;;;;;;4995587;28;20453;-80
2023/03/27 00:26:15;;;;;;;0.80;0.25;;;3.40;95.30;;;;;;4998010;28;20054;-80
2023/03/27 00:28:42;;;;;;;0.80;0.22;;;3.40;95.30;;;;;;4964088;28;20063;-80
2023/03/27 00:31:11;;;;;;;3.40;0.65;;;3.40;95.30;;;;;;4981537;28;20054;-80
2023/03/27 00:33:39;;;;;;;1.00;0.10;;;3.40;95.30;;;;;;4995485;28;20435;-80
2023/03/27 00:36:07;;;;;;;2.17;0.50;;;3.40;95.40;;;;;;4997702;28;20081;-80
2023/03/27 00:38:34;;;;;;;1.63;0.20;;;3.40;95.40;;;;;;4990036;28;20038;-80
2023/03/27 00:41:01;;;;;;;0.93;0.10;;;3.40;95.40;;;;;;4991080;28;20046;-80
2023/03/27 00:43:33;;;;;;;1.58;0.20;;;3.30;95.40;;;;;;4981151;28;20483;-80
2023/03/27 00:46:23;;;;;;;0.70;0.57;;;3.30;95.40;;;;;;4981293;28;20116;-80
2023/03/27 00:48:51;;;;;;;2.00;0.10;;;3.40;95.40;;;;;;4995679;28;20372;-80
2023/03/27 00:51:21;;;;;;;1.17;0.28;;;3.30;95.40;;;;;;4980044;28;20069;-79
2023/03/27 00:53:52;;;;;;;1.25;0.30;;;3.30;95.70;;;;;;4988597;28;20037;-80
2023/03/27 00:56:20;;;;;;;2.25;0.30;;;3.30;95.50;;;;;;4986502;28;20042;-80
2023/03/27 00:58:52;;;;;;;1.40;0.20;;;3.30;95.50;;;;;;4996911;28;20046;-80
2023/03/27 01:01:23;;;;;;;0.65;0.20;;;3.30;95.50;;;;;;4996004;28;20049;-80
2023/03/27 01:03:52;;;;;;;2.47;0.20;;;3.30;95.50;;;;;;4997499;28;20045;-79
2023/03/27 01:06:21;;;;;;;1.73;0.57;;;3.30;95.50;;;;;;4978684;28;20320;-80
2023/03/27 01:08:48;;;;;;;1.50;0.20;;;3.20;95.50;;;;;;4997856;28;20531;-80
2023/03/27 01:11:21;;;;;;;0.50;0.10;;;3.20;95.50;;;;;;4991559;28;20057;-80
2023/03/27 01:14:04;;;;;;;1.40;0.28;;;3.30;95.60;;;;;;4992670;28;20046;-80
2023/03/27 01:16:42;;;;;;;0.77;0.20;;;3.20;95.60;;;;;;5014844;28;20040;-80
2023/03/27 01:19:40;;;;;;;1.45;0.20;;;3.20;95.60;;;;;;4997275;28;20042;-76
2023/03/27 01:22:20;;;;;;;1.65;0.20;;;3.20;95.60;;;;;;5012154;28;20104;-76
2023/03/27 01:25:14;;;;;;;0.80;0.30;;;3.20;95.60;;;;;;4995864;28;20049;-76
2023/03/27 01:28:07;;;;;;;1.30;0.20;;;3.20;95.70;;;;;;4977538;28;20049;-76
2023/03/27 01:30:38;;;;;;;;;;;3.20;95.70;;;;;;5005178;28;20062;-76
2023/03/27 01:33:25;;;;;;;0.50;0.17;;;3.10;95.70;;;;;;4999341;28;20011;-76
2023/03/27 01:36:16;;;;;;;1.67;0.30;;;3.10;95.70;;;;;;4991582;28;20065;-76
2023/03/27 01:39:17;;;;;;;0.57;0.20;;;3.10;95.80;;;;;;4982237;28;20132;-76
2023/03/27 01:41:53;;;;;;;1.90;0.40;;;3.10;95.70;;;;;;4997649;28;20441;-76
2023/03/27 01:44:46;;;;;;;1.67;0.30;;;3.10;95.80;;;;;;4992736;28;20540;-76
2023/03/27 01:47:28;;;;;;;3.70;0.65;;;3.10;95.80;;;;;;4981788;28;20045;-76
2023/03/27 01:50:14;;;;;;;1.75;0.40;;;3.10;95.90;;;;;;4981513;28;20141;-76
2023/03/27 01:52:58;;;;;;;2.35;0.55;;;3.20;95.80;;;;;;4986365;28;20606;-76
2023/03/27 01:55:31;;;;;;;2.80;0.50;;;3.20;95.70;;;;;;5002530;28;20406;-76
2023/03/27 01:58:08;;;;;;;1.02;0.40;;;3.20;95.70;;;;;;4989999;28;20133;-76
2023/03/27 02:00:37;;;;;;;2.30;0.75;;;3.30;95.90;;;;;;4993163;28;20465;-76
2023/03/27 02:03:40;;;;;;;1.67;0.55;;;3.30;95.60;;;;;;4970475;28;20053;-76
2023/03/27 02:06:15;;;;;;;1.10;0.38;;;3.30;95.60;;;;;;5013202;28;20078;-76
2023/03/27 02:08:58;;;;;;;2.80;0.40;;;3.30;95.70;;;;;;4990559;28;20050;-77
2023/03/27 02:11:29;;;;;;;2.30;0.63;;;3.30;95.60;;;;;;4996131;28;20049;-76
2023/03/27 02:14:11;;;;;;;1.83;0.40;;;3.40;95.60;;;;;;4995884;28;20524;-76
2023/03/27 02:16:44;;;;;;;3.67;0.60;;;3.40;95.60;;;;;;4995266;28;20038;-76
2023/03/27 02:19:21;;;;;;;1.88;0.30;;;3.40;95.50;;;;;;4984988;28;20069;-76
2023/03/27 02:21:48;;;;;;;2.60;0.40;;;3.40;95.60;;;;;;4995411;28;20050;-76
2023/03/27 02:24:17;;;;;;;2.20;0.47;;;3.40;95.60;;;;;;4980199;28;20054;-76
2023/03/27 02:26:48;;;;;;;5.00;0.30;;;3.40;95.60;;;;;;5008149;28;20045;-76
2023/03/27 02:29:33;;;;;;;2.30;0.47;;;3.40;95.60;;;;;;4979557;28;20057;-76
2023/03/27 02:32:25;;;;;;;2.15;0.40;;;3.40;95.60;;;;;;4982492;28;20457;-76
2023/03/27 02:35:11;;;;;;;3.05;0.30;;;3.40;95.60;;;;;;4995473;28;20046;-76
2023/03/27 02:37:49;;;;;;;1.65;0.40;;;3.30;95.70;;;;;;4980261;28;20050;-76
2023/03/27 02:40:22;;;;;;;1.40;0.40;;;3.30;95.80;;;;;;4996175;28;20053;-76
2023/03/27 02:43:18;;;;;;;1.70;0.30;;;3.30;95.80;;;;;;4999967;28;20525;-76
2023/03/27 02:45:48;;;;;;;2.28;0.30;;;3.30;95.80;;;;;;4989339;28;20132;-76
2023/03/27 02:48:21;;;;;;;0.43;0.20;;;3.20;96.00;;;;;;4991684;28;20130;-76
2023/03/27 02:51:17;;;;;;;1.30;0.20;;;3.20;96.00;;;;;;4993919;28;20046;-76
2023/03/27 02:53:52;;;;;;;0.15;0.10;;;3.20;96.30;;;;;;4993293;28;20368;-76
2023/03/27 02:56:22;;;;;;;1.20;0.20;;;3.10;96.00;;;;;;4995296;28;20050;-76
2023/03/27 02:58:56;;;;;;;0.77;0.20;;;3.10;96.10;;;;;;4987722;28;20064;-76
2023/03/27 03:01:39;;;;;;;1.08;0.10;;;3.10;96.20;;;;;;4992153;28;20046;-76
2023/03/27 03:04:28;;;;;;;1.52;0.40;;;3.00;96.20;;;;;;4970640;28;20125;-76
2023/03/27 03:07:05;;;;;;;2.13;0.35;;;3.00;96.30;;;;;;5012652;28;20108;-76
2023/03/27 03:09:33;;;;;;;0.75;0.22;;;3.00;96.30;;;;;;4977603;28;20466;-76
2023/03/27 03:12:07;;;;;;;1.95;0.30;;;3.00;96.20;;;;;;4988655;28;20053;-76
2023/03/27 03:14:44;;;;;;;1.45;0.20;;;2.90;96.30;;;;;;4992454;28;20781;-76
2023/03/27 03:17:15;;;;;;;1.30;0.47;;;2.90;96.30;;;;;;4995080;28;20597;-76
2023/03/27 03:19:44;;;;;;;1.67;1.38;;;2.90;96.30;;;;;;4995304;28;20042;-76
2023/03/27 03:22:12;;;;;;;0.57;0.20;;;2.90;96.40;;;;;;4963299;28;20534;-76
2023/03/27 03:24:42;;;;;;;2.10;0.17;;;2.90;96.70;;;;;;4982782;28;20045;-76
2023/03/27 03:27:13;;;;;;;2.17;0.25;;;2.80;96.50;;;;;;4958137;28;20077;-76
2023/03/27 03:29:47;;;;;;;2.28;0.63;;;2.90;96.50;;;;;;4994916;28;20514;-76
2023/03/27 03:32:17;;;;;;;0.90;0.10;;;2.90;96.60;;;;;;4979506;28;20042;-76
2023/03/27 03:34:46;;;;;;;1.08;0.30;;;2.90;96.50;;;;;;4971486;28;20100;-76
2023/03/27 03:37:14;;;;;;;2.28;0.30;;;2.90;96.50;;;;;;4979082;28;20582;-76
2023/03/27 03:39:46;;;;;;;1.35;0.43;;;3.00;96.60;;;;;;4980827;28;20050;-76
2023/03/27 03:42:16;;;;;;;;;;;3.00;96.50;;;;;;4994856;28;20050;-76
2023/03/27 03:44:50;;;;;;;1.63;0.40;;;3.10;96.50;;;;;;4983326;28;20012;-76
2023/03/27 03:47:20;;;;;;;1.95;0.30;;;3.20;96.40;;;;;;4989585;28;20137;-76
2023/03/27 03:49:47;;;;;;;3.17;0.22;;;3.20;96.30;;;;;;4987522;28;20053;-77
2023/03/27 03:52:14;;;;;;;1.13;0.17;;;3.30;96.20;;;;;;4966884;28;20494;-76
2023/03/27 03:54:42;;;;;;;1.38;0.47;;;3.30;96.10;;;;;;4968828;28;20053;-76
2023/03/27 03:57:12;;;;;;;1.63;0.30;;;3.40;96.10;;;;;;5000033;28;20057;-76
2023/03/27 03:59:39;;;;;;;1.00;0.30;;;3.40;96.00;;;;;;4994857;28;20053;-76
2023/03/27 04:02:35;;;;;;;1.95;0.28;;;3.40;96.10;;;;;;4973651;28;20062;-76
2023/03/27 04:05:08;;;;;;;0.63;0.10;;;3.40;96.00;;;;;;4979226;28;20068;-76
2023/03/27 04:07:38;;;;;;;0.60;0.30;;;3.40;96.00;;;;;;4979075;28;20096;-76
2023/03/27 04:10:37;;;;;;;0.90;0.28;;;3.40;96.00;;;;;;4923671;28;20060;-76
2023/03/27 04:13:11;;;;;;;1.38;0.40;;;3.30;96.10;;;;;;4979188;28;20488;-76
2023/03/27 04:15:50;;;;;;;0.98;0.30;;;3.30;96.10;;;;;;4981860;28;20070;-77
2023/03/27 04:18:33;;;;;;;0.68;0.30;;;3.10;96.30;;;;;;4972896;28;20064;-77
2023/03/27 04:21:13;;;;;;;0.28;0.10;;;3.00;96.40;;;;;;4979574;28;20379;-77
2023/03/27 04:23:41;;;;;;;1.48;0.20;;;2.90;96.60;;;;;;4987933;28;20494;-76
2023/03/27 04:26:10;;;;;;;0.20;0.00;;;2.80;96.60;;;;;;4978242;28;20430;-76
2023/03/27 04:29:13;;;;;;;0.20;0.00;;;2.80;96.80;;;;;;5010541;28;20041;-76
2023/03/27 04:32:18;;;;;;;0.35;0.00;;;2.70;96.90;;;;;;4986902;28;20046;-76
2023/03/27 04:35:04;;;;;;;1.55;0.10;;;2.60;96.90;;;;;;5012321;28;20057;-76
2023/03/27 04:37:47;;;;;;;1.10;0.10;;;2.60;97.00;;;;;;4970193;28;20510;-76
2023/03/27 04:40:34;;;;;;;0.10;0.03;;;2.60;97.10;;;;;;4997659;28;20053;-76
2023/03/27 04:43:01;;;;;;;0.43;0.00;;;2.50;97.10;;;;;;4978332;28;20100;-76
2023/03/27 04:45:32;;;;;;;1.75;0.10;;;2.50;97.10;;;;;;4980113;28;20073;-77
2023/03/27 04:48:00;;;;;;;0.75;0.13;;;2.50;97.20;;;;;;4980650;28;20046;-76
2023/03/27 04:50:30;;;;;;;0.20;0.10;;;2.40;97.20;;;;;;4971027;28;20133;-76
2023/03/27 04:53:00;;;;;;;0.35;0.10;;;2.40;97.30;;;;;;4987666;28;20058;-76
2023/03/27 04:55:38;;;;;;;0.47;0.20;;;2.30;97.40;;;;;;4981928;28;20042;-76
2023/03/27 04:58:07;;;;;;;0.15;0.08;;;2.30;97.40;;;;;;4972797;28;20050;-76
2023/03/27 05:00:36;;;;;;;0.65;0.10;;;2.20;97.40;;;;;;4982787;28;20034;-76
2023/03/27 05:03:40;;;;;;;0.10;0.00;;;2.20;97.40;;;;;;5015047;28;20510;-76
2023/03/27 05:06:14;;;;;;;0.15;0.10;;;2.20;97.50;;;;;;4985549;28;20053;-76
2023/03/27 05:08:42;;;;;;;0.40;0.07;;;2.20;97.50;;;;;;4978977;28;20053;-76
2023/03/27 05:11:18;;;;;;;1.55;0.10;;;2.20;97.50;;;;;;4970102;28;20134;-76
2023/03/27 05:13:45;;;;;;;0.10;0.10;;;2.20;97.60;;;;;;5008375;28;20091;-76
2023/03/27 05:16:16;;;;;;;0.85;0.10;;;2.10;97.90;;;;;;4966497;28;20042;-77
2023/03/27 05:18:48;;;;;;;0.50;0.13;;;2.10;97.70;;;;;;4980875;28;20113;-77
2023/03/27 05:21:15;;;;;;;0.87;0.10;;;2.10;97.70;;;;;;4993035;28;20046;-77
2023/03/27 05:23:42;;;;;;;0.10;0.10;;;2.10;97.70;;;;;;4981408;28;20045;-77
2023/03/27 05:26:10;;;;;;;1.52;0.17;;;2.10;97.70;;;;;;4981563;28;20050;-77
2023/03/27 05:28:47;;;;;;;0.10;0.10;;;2.10;97.80;;;;;;4984509;28;20038;-78
2023/03/27 05:31:15;;;;;;;1.40;0.20;;;2.10;97.80;;;;;;4964966;28;20045;-78
2023/03/27 05:33:54;;;;;;;0.30;0.10;;;2.10;97.80;;;;;;4999144;28;20576;-78
2023/03/27 05:36:27;;;;;;;0.32;0.10;;;2.20;97.80;;;;;;4972623;28;20077;-77
2023/03/27 05:38:58;;;;;;;1.55;0.20;;;2.20;97.80;;;;;;4954285;28;20149;-78
2023/03/27 05:41:31;;;;;;;0.47;0.20;;;2.20;97.80;;;;;;4981669;28;20038;-77
2023/03/27 05:44:01;;;;;;;0.37;0.17;;;2.20;97.80;;;;;;4965063;28;20043;-77
2023/03/27 05:46:33;;;;;;;0.95;0.50;;;2.20;97.80;;;;;;5006461;28;20042;-78
2023/03/27 05:49:08;;;;;;;0.45;0.20;;;2.20;97.80;;;;;;4972197;28;20149;-78
2023/03/27 05:51:38;;;;;;;1.33;0.10;;;2.20;97.80;;;;;;4998525;28;20045;-77
2023/03/27 05:54:20;;;;;;;1.10;0.20;;;2.20;97.80;;;;;;4967938;28;20478;-78
2023/03/27 05:57:13;;;;;;;1.27;0.20;;;2.20;97.80;;;;;;4982497;28;20383;-78
2023/03/27 05:59:41;;;;;;;0.95;0.20;;;2.20;97.90;;;;;;4949219;28;20046;-78
2023/03/27 06:02:20;;;;;;;0.37;0.10;;;2.20;97.90;;;;;;4996170;28;20037;-78
2023/03/27 06:05:00;;;;;;;0.90;0.30;;;2.30;97.90;;;;;;4992077;28;20056;-78
2023/03/27 06:07:39;;;;;;;0.83;0.30;;;2.30;97.90;;;;;;4996006;28;20037;-78
2023/03/27 06:10:11;;;;;;;1.43;0.30;;;2.30;97.90;;;;;;4980909;28;20076;-78
2023/03/27 06:13:07;;;;;;;2.40;0.30;;;2.30;97.90;;;;;;5010745;28;20049;-78
2023/03/27 06:15:46;;;;;;;1.63;0.30;;;2.40;97.90;;;;;;4997385;28;20069;-78
2023/03/27 06:18:19;;;;;;;1.30;0.33;;;2.40;97.90;;;;;;4980719;28;20073;-78
2023/03/27 06:20:47;;;;;;;1.37;0.50;;;2.50;97.90;;;;;;4969693;28;20038;-78
2023/03/27 06:23:14;;;;;;;1.77;0.40;;;2.60;97.90;;;;;;4980029;28;20041;-77
2023/03/27 06:29:05;;;;;;;1.67;0.52;;;2.70;97.80;;;;;;4996347;28;20052;-78
2023/03/27 06:31:37;;;;;;;1.90;0.50;;;2.80;97.70;;;;;;4986654;28;20111;-77
2023/03/27 06:34:16;;;;;;;1.83;0.60;;;2.90;97.70;;;;;;4972079;28;20421;-77
2023/03/27 06:36:52;;;;;;;2.83;0.40;;;2.90;97.60;;;;;;4972455;28;20058;-77
2023/03/27 06:39:20;;;;;;;2.55;0.60;;;3.00;97.60;;;;;;4964219;28;20050;-77
2023/03/27 06:41:50;;;;;;;1.90;0.50;;;3.10;97.60;;;;;;4983548;28;20049;-77
2023/03/27 06:44:25;;;;;;;2.38;0.50;;;3.10;97.50;;;;;;4995970;28;20093;-77
2023/03/27 06:47:01;;;;;;;1.85;0.43;;;3.20;97.50;;;;;;4969414;28;20045;-77
2023/03/27 06:49:35;;;;;;;1.50;0.30;;;3.30;97.50;;;;;;4961063;28;20050;-77
2023/03/27 06:52:10;;;;;;;1.80;0.45;;;3.40;97.40;;;;;;4963736;28;20042;-77
2023/03/27 06:54:37;;;;;;;7.70;0.60;;;3.50;97.40;;;;;;4964391;28;20057;-77
2023/03/27 06:57:05;;;;;;;1.98;0.45;;;3.60;97.30;;;;;;4945640;28;20046;-77
2023/03/27 06:59:47;;;;;;;1.55;0.40;;;3.80;97.20;;;;;;4990160;28;20050;-78
2023/03/27 07:02:19;;;;;;;3.78;0.50;;;3.90;97.00;;;;;;4995494;28;20046;-77
2023/03/27 07:05:07;;;;;;;3.65;0.60;;;3.90;96.90;;;;;;4970305;28;20057;-77
2023/03/27 07:07:39;;;;;;;6.40;0.80;;;3.80;96.80;;;;;;4984570;28;20057;-77
2023/03/27 07:10:09;;;;;;;3.57;0.70;;;3.70;96.80;;;;;;5004002;28;20505;-77
2023/03/27 07:12:40;;;;;;;1.08;0.52;;;3.60;96.90;;;;;;4992583;28;20073;-77
2023/03/27 07:15:09;;;;;;;2.40;0.63;;;3.70;97.00;;;;;;4986876;28;20141;-77
2023/03/27 07:17:36;;;;;;;2.10;0.50;;;3.70;97.00;;;;;;4987107;28;20116;-77
2023/03/27 07:20:16;;;;;;;1.75;0.30;;;3.80;96.90;;;;;;4995925;28;20042;-77
2023/03/27 07:22:43;;;;;;;2.95;0.40;;;3.80;96.90;;;;;;4970572;28;20108;-78
2023/03/27 07:25:21;;;;;;;2.50;0.50;;;3.90;96.90;;;;;;4993097;28;20067;-78
2023/03/27 07:27:49;;;;;;;3.05;1.00;;;4.00;96.90;;;;;;5004044;28;20046;-77
2023/03/27 07:30:17;;;;;;;4.65;0.70;;;4.10;96.80;;;;;;4984955;28;20041;-77
2023/03/27 07:32:45;;;;;;;1.35;0.40;;;4.20;96.60;;;;;;4995131;28;20409;-77
2023/03/27 07:35:13;;;;;;;2.08;0.40;;;4.30;96.50;;;;;;4961498;28;20124;-77
2023/03/27 07:37:52;;;;;;;5.90;0.95;;;4.40;96.50;;;;;;4996629;28;20045;-77
2023/03/27 07:40:45;;;;;;;1.67;0.57;;;4.50;96.30;;;;;;4986384;28;20045;-77
2023/03/27 07:43:41;;;;;;;4.88;1.10;;;4.60;96.20;;;;;;4935092;28;20052;-77
2023/03/27 07:46:09;;;;;;;3.88;1.00;;;4.60;95.60;;;;;;4972930;28;20411;-77
2023/03/27 07:48:37;;;;;;;4.10;0.60;;;4.60;95.60;;;;;;4991473;28;20057;-77
2023/03/27 07:51:04;;;;;;;4.13;1.10;;;4.70;95.70;;;;;;4995043;28;20050;-77
2023/03/27 07:53:34;;;;;;;2.80;0.70;;;4.80;95.60;;;;;;4987320;28;20046;-78
2023/03/27 07:56:10;;;;;;;6.22;1.13;;;4.90;95.50;;;;;;4965226;28;20038;-77
2023/03/27 07:58:39;;;;;;;4.35;0.93;;;5.00;95.30;;;;;;4978829;28;20053;-77
2023/03/27 08:01:06;;;;;;;1.50;0.50;;;5.10;95.20;;;;;;4978812;28;20042;-78
2023/03/27 08:03:36;;;;;;;4.10;0.70;;;5.20;95.20;;;;;;4975557;28;20046;-77
2023/03/27 08:06:05;;;;;;;3.72;0.82;;;5.20;94.90;;;;;;4978544;28;20446;-77
2023/03/27 08:08:33;;;;;;;2.95;0.75;;;5.30;94.90;;;;;;4982716;28;20080;-77
2023/03/27 08:11:02;;;;;;;2.88;0.45;;;5.30;94.80;;;;;;4995044;28;20058;-77
2023/03/27 08:13:38;;;;;;;3.08;0.65;;;5.30;94.90;;;;;;4994784;28;20097;-77
2023/03/27 08:16:17;;;;;;;5.05;1.17;;;5.30;94.90;;;;;;4989754;28;20121;-77
2023/03/27 08:18:48;;;;;;;4.57;0.90;;;5.40;94.70;;;;;;4982911;28;20409;-78
2023/03/27 08:21:16;;;;;;;2.05;0.60;;;5.40;94.70;;;;;;4988389;28;20121;-77
2023/03/27 08:23:47;;;;;;;4.80;0.60;;;5.30;94.80;;;;;;4998501;28;20042;-77
2023/03/27 08:26:33;;;;;;;3.97;0.80;;;5.40;94.80;;;;;;4984483;28;20494;-77
2023/03/27 08:29:04;;;;;;;4.07;0.60;;;5.50;94.70;;;;;;4967446;28;20572;-78
2023/03/27 08:31:33;;;;;;;5.28;0.85;;;5.60;94.60;;;;;;4966936;28;20100;-77
2023/03/27 08:34:03;;;;;;;2.53;0.47;;;5.80;94.60;;;;;;4967280;28;20092;-78
2023/03/27 08:36:43;;;;;;;2.15;0.50;;;6.00;94.50;;;;;;4981454;28;20050;-79
2023/03/27 08:39:12;;;;;;;3.20;0.60;;;6.10;94.30;;;;;;4941851;29;20043;-77
2023/03/27 08:41:55;;;;;;;2.78;0.40;;;6.20;94.30;;;;;;4954296;28;20051;-78
2023/03/27 08:44:32;;;;;;;1.25;0.25;;;6.50;94.20;;;;;;4931266;29;20579;-78
2023/03/27 08:47:15;;;;;;;1.40;0.77;;;6.80;94.10;;;;;;4924953;29;20047;-77
2023/03/27 08:50:15;;;;;;;2.40;0.40;;;7.10;93.80;;;;;;4957819;28;20051;-79
2023/03/27 08:52:47;;;;;;;1.90;0.40;;;7.00;93.60;;;;;;4936699;29;20082;-79
2023/03/27 08:55:44;;;;;;;1.42;0.30;;;6.80;93.10;;;;;;4953641;29;20459;-78
2023/03/27 08:58:19;;;;;;;1.45;0.20;;;6.40;93.30;;;;;;4938833;29;20055;-78
2023/03/27 09:01:03;;;;;;;0.55;0.20;;;5.90;93.80;;;;;;4919971;29;20135;-78
2023/03/27 09:03:46;;;;;;;1.50;0.20;;;5.50;94.10;;;;;;4951033;29;20455;-78
2023/03/27 09:06:25;;;;;;;0.80;0.20;;;5.20;94.50;;;;;;4942614;29;20055;-78
2023/03/27 09:09:27;;;;;;;1.08;0.10;;;5.00;94.80;;;;;;4946862;29;20070;-78
2023/03/27 09:12:22;;;;;;;0.75;0.20;;;4.90;95.00;;;;;;4992342;28;20042;-79
2023/03/27 09:15:06;;;;;;;1.55;0.30;;;4.90;95.10;;;;;;5005137;28;20037;-82
2023/03/27 09:17:40;;;;;;;0.73;0.10;;;4.90;95.10;;;;;;5000524;28;20046;-83
2023/03/27 09:20:16;;;;;;;1.95;0.20;;;5.00;95.10;;;;;;4982505;28;20065;-84
2023/03/27 09:23:37;;;;;;;0.73;0.10;;;5.00;95.40;;;;;;4982560;28;20042;-83
2023/03/27 09:26:25;;;;;;;1.48;0.00;;;5.10;95.10;;;;;;4997841;28;20085;-84
2023/03/27 09:29:10;;;;;;;0.40;0.10;;;5.20;95.10;;;;;;5001033;28;20514;-81
2023/03/27 09:31:49;;;;;;;0.68;0.10;;;5.20;95.00;;;;;;5001835;28;20473;-81
2023/03/27 09:34:24;;;;;;;1.27;0.25;;;5.30;94.90;;;;;;4982630;28;20048;-81
2023/03/27 09:36:53;;;;;;;1.05;0.22;;;5.40;94.80;;;;;;4997429;28;20128;-81
2023/03/27 09:39:26;;;;;;;0.85;0.20;;;5.50;94.60;;;;;;4975978;28;20046;-82
2023/03/27 09:42:21;;;;;;;1.17;0.10;;;5.60;94.50;;;;;;4999172;28;20181;-81
2023/03/27 09:44:54;;;;;;;2.38;0.20;;;5.80;94.50;;;;;;4997736;28;20483;-83
2023/03/27 09:47:42;;;;;;;3.00;0.35;;;6.00;94.30;;;;;;4981669;28;20133;-81
2023/03/27 09:50:44;;;;;;;0.73;0.05;;;6.30;94.00;;;;;;4996621;28;20069;-81
2023/03/27 09:53:29;;;;;;;1.08;0.20;;;6.60;93.90;;;;;;4999687;28;20050;-82
2023/03/27 09:56:12;;;;;;;1.55;0.30;;;6.90;93.60;;;;;;4986214;28;20042;-81
2023/03/27 09:58:47;;;;;;;4.70;1.77;;;7.10;93.30;;;;;;4982369;28;20042;-83
2023/03/27 10:01:33;;;;;;;2.72;0.47;;;7.20;92.90;;;;;;4979130;28;20046;-82
2023/03/27 10:04:17;;;;;;;0.98;0.20;;;7.20;92.50;;;;;;4996732;28;20042;-81
2023/03/27 10:07:21;;;;;;;3.33;0.30;;;7.20;92.00;;;;;;5012361;28;20072;-81
2023/03/27 10:10:18;;;;;;;6.30;0.40;;;7.00;92.00;;;;;;4998880;28;20053;-79
2023/03/27 10:13:12;;;;;;;1.27;0.20;;;6.70;92.10;;;;;;4980065;28;20077;-83
2023/03/27 10:15:47;;;;;;;0.77;0.20;;;6.40;92.50;;;;;;4966869;28;20410;-83
2023/03/27 10:18:28;;;;;;;0.38;0.10;;;6.40;92.80;;;;;;4996697;28;20050;-82
2023/03/27 10:21:15;;;;;;;1.55;0.10;;;6.30;93.00;;;;;;4978692;28;20926;-81
2023/03/27 10:23:48;;;;;;;0.57;0.10;;;6.20;93.10;;;;;;5011748;28;20074;-80
2023/03/27 10:26:35;;;;;;;1.45;0.47;;;6.10;93.30;;;;;;5011956;28;20902;-81
2023/03/27 10:29:22;;;;;;;0.88;0.15;;;6.10;93.40;;;;;;4995259;28;20045;-81
2023/03/27 10:31:53;;;;;;;0.98;0.10;;;6.10;93.40;;;;;;5011978;28;20042;-80
2023/03/27 10:34:56;;;;;;;1.13;0.17;;;6.20;93.40;;;;;;4993933;28;20054;-80
2023/03/27 10:37:33;;;;;;;3.05;0.73;;;6.20;93.20;;;;;;4978196;28;20031;-81
2023/03/27 10:40:23;;;;;;;1.52;0.17;;;6.30;92.90;;;;;;4976190;28;20062;-84
2023/03/27 10:43:00;;;;;;;1.17;0.30;;;6.40;92.50;;;;;;4964735;28;20487;-86
2023/03/27 10:45:30;;;;;;;0.93;0.20;;;6.40;92.50;;;;;;4961022;28;20043;-90
2023/03/27 10:48:01;;;;;;;1.98;0.38;;;6.50;92.50;;;;;;4975216;28;20060;-91
2023/03/27 10:50:52;;;;;;;0.82;0.30;;;6.80;92.60;;;;;;4981143;28;20077;-87
2023/03/27 10:53:47;;;;;;;0.85;0.13;;;7.30;92.30;;;;;;4995381;28;20046;-88
2023/03/27 10:56:28;;;;;;;2.92;0.43;;;7.50;91.80;;;;;;4981041;28;20042;-85
2023/03/27 10:59:15;;;;;;;1.58;0.20;;;7.60;91.00;;;;;;4971247;28;20049;-89
2023/03/27 11:01:54;;;;;;;2.95;0.20;;;7.70;90.80;;;;;;4981092;28;20133;-88
2023/03/27 11:04:49;;;;;;;3.28;1.13;;;7.80;90.50;;;;;;4967191;28;20141;-87
2023/03/27 11:07:36;;;;;;;0.68;0.20;;;7.90;90.30;;;;;;4977332;28;20074;-82
2023/03/27 11:10:10;;;;;;;1.75;0.20;;;8.00;90.20;;;;;;4976130;28;20503;-82
2023/03/27 11:12:41;;;;;;;3.92;0.35;;;8.00;89.90;;;;;;4978958;28;20056;-82
2023/03/27 11:15:21;;;;;;;2.10;0.20;;;8.10;89.10;;;;;;4965471;28;20105;-82
2023/03/27 11:18:01;;;;;;;2.90;0.20;;;8.10;89.40;;;;;;4957483;28;20043;-83
2023/03/27 11:20:43;;;;;;;2.85;0.30;;;8.10;88.80;;;;;;4975464;28;20517;-85
2023/03/27 11:23:32;;;;;;;3.38;0.40;;;8.20;86.40;;;;;;4995249;28;20072;-84
2023/03/27 11:26:32;;;;;;;1.95;0.20;;;8.30;86.10;;;;;;4986450;28;20506;-82
2023/03/27 11:29:15;;;;;;;3.83;0.20;;;8.30;86.20;;;;;;4976230;28;20057;-89
2023/03/27 11:31:58;;;;;;;4.38;0.30;;;8.50;86.50;;;;;;4966999;28;20054;-89
2023/03/27 11:34:59;;;;;;;1.38;0.30;;;8.60;86.20;;;;;;4990317;28;20054;-88
2023/03/27 11:37:52;;;;;;;1.35;0.20;;;8.80;86.70;;;;;;4980715;28;20117;-82
2023/03/27 11:40:35;;;;;;;1.40;0.25;;;8.90;86.60;;;;;;4980863;28;20275;-81
2023/03/27 11:43:03;;;;;;;1.23;0.20;;;8.80;85.90;;;;;;4968454;28;20058;-80
2023/03/27 11:45:51;;;;;;;1.30;0.25;;;8.50;86.10;;;;;;4962171;28;20049;-81
2023/03/27 11:48:34;;;;;;;3.03;0.40;;;8.10;86.50;;;;;;4966376;28;20434;-81
2023/03/27 11:51:13;;;;;;;2.53;0.30;;;7.60;87.50;;;;;;4975922;28;20046;-81
2023/03/27 11:53:52;;;;;;;3.70;0.40;;;7.20;88.80;;;;;;4975972;28;20046;-80
2023/03/27 11:56:56;;;;;;;3.42;0.47;;;7.00;89.60;;;;;;4984287;28;20606;-81
2023/03/27 11:59:59;;;;;;;1.50;0.20;;;6.70;90.00;;;;;;4979735;28;20043;-81
2023/03/27 12:02:48;;;;;;;4.03;0.40;;;6.50;90.20;;;;;;4996422;28;20046;-80
2023/03/27 12:05:30;;;;;;;0.80;0.20;;;6.50;90.50;;;;;;4985902;28;20046;-80
2023/03/27 12:08:06;;;;;;;2.78;0.25;;;6.50;90.60;;;;;;4967830;28;20137;-81
2023/03/27 12:10:37;;;;;;;3.70;0.30;;;6.70;90.50;;;;;;4996219;28;20077;-81
2023/03/27 12:13:47;;;;;;;1.23;0.50;;;6.90;90.20;;;;;;4963659;28;20080;-80
2023/03/27 12:17:11;;;;;;;4.28;0.70;;;7.10;88.00;;;;;;4976413;28;20050;-78
2023/03/27 12:20:29;;;;;;;6.40;0.63;;;7.30;80.20;;;;;;4979449;28;20042;-78
2023/03/27 12:23:22;;;;;;;3.92;0.30;;;7.40;79.00;;;;;;4980608;28;20494;-78
2023/03/27 12:26:55;;;;;;;1.48;0.30;;;7.50;80.20;;;;;;4993701;28;20466;-78
2023/03/27 12:30:01;;;;;;;3.58;0.77;;;7.60;80.60;;;;;;4950707;28;20248;-78
2023/03/27 12:32:52;;;;;;;3.92;0.30;;;7.70;80.00;;;;;;4979005;28;20050;-78
2023/03/27 12:35:25;;;;;;;2.78;0.40;;;7.80;78.60;;;;;;4970613;28;20054;-79
2023/03/27 12:38:06;;;;;;;2.78;0.68;;;7.90;78.80;;;;;;4986245;28;20097;-79
2023/03/27 12:41:00;;;;;;;2.85;0.80;;;7.90;79.30;;;;;;4984931;28;20046;-79
2023/03/27 12:43:38;;;;;;;3.50;0.45;;;7.90;79.20;;;;;;4997337;28;20060;-78
2023/03/27 12:46:28;;;;;;;3.13;0.85;;;7.90;77.70;;;;;;4997393;28;20494;-78
2023/03/27 12:49:05;;;;;;;3.83;0.70;;;8.00;77.50;;;;;;4997028;28;20054;-78
2023/03/27 12:52:03;;;;;;;3.35;0.52;;;8.10;76.50;;;;;;4981749;28;20498;-79
2023/03/27 12:55:25;;;;;;;2.92;0.55;;;8.10;76.20;;;;;;5003981;28;20406;-79
2023/03/27 12:58:02;;;;;;;2.80;0.30;;;8.40;76.70;;;;;;5015096;28;20056;-78
2023/03/27 13:01:00;;;;;;;1.10;0.30;;;8.70;75.70;;;;;;4997560;28;20046;-78
2023/03/27 13:03:45;;;;;;;4.90;0.52;;;8.80;75.80;;;;;;4983383;28;20408;-79
2023/03/27 13:06:52;;;;;;;4.18;0.77;;;8.70;76.90;;;;;;4997321;28;20053;-79
2023/03/27 13:09:46;;;;;;;2.97;0.20;;;8.30;78.40;;;;;;4960839;28;20506;-78
2023/03/27 13:12:38;;;;;;;3.10;0.40;;;8.00;79.70;;;;;;4997425;28;20045;-78
2023/03/27 13:15:31;;;;;;;3.85;0.47;;;7.70;80.80;;;;;;4998007;28;20092;-79
2023/03/27 13:18:21;;;;;;;2.63;0.40;;;7.60;81.60;;;;;;4996786;28;20074;-78
2023/03/27 13:20:58;;;;;;;1.33;0.30;;;7.50;81.90;;;;;;5022294;28;20038;-78
2023/03/27 13:24:01;;;;;;;1.38;0.22;;;7.30;82.40;;;;;;4993553;28;20048;-78
2023/03/27 13:26:39;;;;;;;;;;;7.20;82.80;;;;;;4955640;28;20053;-78
2023/03/27 13:29:20;;;;;;;1.05;0.20;;;7.20;82.80;;;;;;4981787;28;19932;-79
2023/03/27 13:32:03;;;;;;;4.22;0.30;;;7.40;82.90;;;;;;4996587;28;20115;-78
2023/03/27 13:35:21;;;;;;;3.40;0.20;;;7.70;81.70;;;;;;5014515;28;20065;-78
2023/03/27 13:37:49;;;;;;;3.67;0.28;;;7.90;81.30;;;;;;4997380;28;20076;-79
2023/03/27 13:40:49;;;;;;;3.25;0.75;;;8.00;81.00;;;;;;4999249;28;20044;-79
2023/03/27 13:43:32;;;;;;;2.85;0.40;;;8.00;79.10;;;;;;4981287;28;20053;-83
2023/03/27 13:46:27;;;;;;;1.70;0.20;;;7.90;79.50;;;;;;5003746;28;20410;-83
2023/03/27 13:49:25;;;;;;;2.00;0.28;;;7.80;79.30;;;;;;4992342;28;20046;-82
2023/03/27 13:52:50;;;;;;;2.40;0.25;;;7.80;79.80;;;;;;4983281;28;20123;-89
2023/03/27 13:56:33;;;;;;;2.88;0.50;;;7.80;79.60;;;;;;4962901;28;20034;-84
2023/03/27 13:59:28;;;;;;;1.30;0.20;;;7.70;78.90;;;;;;4994387;28;20077;-83
2023/03/27 14:02:27;;;;;;;;;;;;;;;;;;;;;
2023/03/27 14:05:11;;;;;;;2.28;0.20;;;7.80;77.40;;;;;;5003693;28;20038;-84
2023/03/27 14:08:12;;;;;;;3.85;0.57;;;7.90;74.90;;;;;;4997552;28;20076;-85